Airport Name : Abumusa Island

Other Name : Abumusa Island

ICAO : OIBA

IATA : AEU

FAA :

Latitude : 25.875742

Longitude : 55.032994

Country : Iran

Local Date and Time : 15 Jul 2024 20:27

 

TAF (Terminal Aerodrome Forecast)

 

METAR (METeorological Aerodrome Report)

OIBA 151500Z 27004KT 2500 HZ NSC 35/30 Q0993

OIBA 151400Z 29006KT 2500 HZ NSC 36/30 Q0993

OIBA 151300Z 01006KT 2500 HZ NSC 36/30 Q0993